sensor_id;sensor_type;location;lat;lon;timestamp;P1;durP1;ratioP1;P2;durP2;ratioP2
50319;SDS011;36226;53.464;9.852;2023-12-04T00:00:21;24.95;;;10.65;;
50319;SDS011;36226;53.464;9.852;2023-12-04T00:02:47;25.13;;;10.70;;
50319;SDS011;36226;53.464;9.852;2023-12-04T00:05:12;23.88;;;10.10;;
50319;SDS011;36226;53.464;9.852;2023-12-04T00:07:37;23.77;;;9.48;;
50319;SDS011;36226;53.464;9.852;2023-12-04T00:10:03;24.65;;;9.30;;
50319;SDS011;36226;53.464;9.852;2023-12-04T00:12:29;25.30;;;10.35;;
50319;SDS011;36226;53.464;9.852;2023-12-04T00:14:54;26.63;;;10.57;;
50319;SDS011;36226;53.464;9.852;2023-12-04T00:17:19;24.88;;;10.20;;
50319;SDS011;36226;53.464;9.852;2023-12-04T00:19:45;21.98;;;9.63;;
50319;SDS011;36226;53.464;9.852;2023-12-04T00:22:10;24.58;;;9.65;;
50319;SDS011;36226;53.464;9.852;2023-12-04T00:24:36;26.92;;;10.18;;
50319;SDS011;36226;53.464;9.852;2023-12-04T00:27:01;25.10;;;10.00;;
50319;SDS011;36226;53.464;9.852;2023-12-04T00:29:26;22.60;;;9.82;;
50319;SDS011;36226;53.464;9.852;2023-12-04T00:31:52;25.23;;;9.57;;
50319;SDS011;36226;53.464;9.852;2023-12-04T00:34:17;23.67;;;9.93;;
50319;SDS011;36226;53.464;9.852;2023-12-04T00:36:42;23.58;;;9.60;;
50319;SDS011;36226;53.464;9.852;2023-12-04T00:39:08;20.65;;;9.05;;
50319;SDS011;36226;53.464;9.852;2023-12-04T00:41:33;23.98;;;9.57;;
50319;SDS011;36226;53.464;9.852;2023-12-04T00:43:59;21.08;;;8.93;;
50319;SDS011;36226;53.464;9.852;2023-12-04T00:46:24;24.52;;;10.02;;
50319;SDS011;36226;53.464;9.852;2023-12-04T00:48:50;27.20;;;10.25;;
50319;SDS011;36226;53.464;9.852;2023-12-04T00:51:16;25.67;;;10.52;;
50319;SDS011;36226;53.464;9.852;2023-12-04T00:53:41;25.85;;;10.48;;
50319;SDS011;36226;53.464;9.852;2023-12-04T00:56:06;22.35;;;9.90;;
50319;SDS011;36226;53.464;9.852;2023-12-04T00:58:32;21.55;;;8.57;;
50319;SDS011;36226;53.464;9.852;2023-12-04T01:00:58;23.52;;;9.75;;
50319;SDS011;36226;53.464;9.852;2023-12-04T01:03:23;22.17;;;8.85;;
50319;SDS011;36226;53.464;9.852;2023-12-04T01:05:51;23.67;;;10.10;;
50319;SDS011;36226;53.464;9.852;2023-12-04T01:08:16;23.98;;;9.25;;
50319;SDS011;36226;53.464;9.852;2023-12-04T01:10:42;22.73;;;10.15;;
50319;SDS011;36226;53.464;9.852;2023-12-04T01:13:08;23.98;;;9.57;;
50319;SDS011;36226;53.464;9.852;2023-12-04T01:15:33;22.08;;;9.88;;
50319;SDS011;36226;53.464;9.852;2023-12-04T01:17:59;22.83;;;10.35;;
50319;SDS011;36226;53.464;9.852;2023-12-04T01:20:25;20.48;;;9.00;;
50319;SDS011;36226;53.464;9.852;2023-12-04T01:22:51;23.48;;;9.27;;
50319;SDS011;36226;53.464;9.852;2023-12-04T01:25:16;24.02;;;9.68;;
50319;SDS011;36226;53.464;9.852;2023-12-04T01:27:41;25.50;;;9.13;;
50319;SDS011;36226;53.464;9.852;2023-12-04T01:30:07;25.92;;;10.00;;
50319;SDS011;36226;53.464;9.852;2023-12-04T01:32:34;25.77;;;10.50;;
50319;SDS011;36226;53.464;9.852;2023-12-04T01:34:59;21.40;;;9.45;;
50319;SDS011;36226;53.464;9.852;2023-12-04T01:37:25;22.48;;;9.93;;
50319;SDS011;36226;53.464;9.852;2023-12-04T01:39:50;23.80;;;9.85;;
50319;SDS011;36226;53.464;9.852;2023-12-04T01:42:15;24.88;;;9.45;;
50319;SDS011;36226;53.464;9.852;2023-12-04T01:44:41;24.15;;;8.90;;
50319;SDS011;36226;53.464;9.852;2023-12-04T01:47:06;22.73;;;9.88;;
50319;SDS011;36226;53.464;9.852;2023-12-04T01:49:32;24.85;;;9.63;;
50319;SDS011;36226;53.464;9.852;2023-12-04T01:51:57;21.73;;;8.60;;
50319;SDS011;36226;53.464;9.852;2023-12-04T01:54:23;20.33;;;9.27;;
50319;SDS011;36226;53.464;9.852;2023-12-04T01:56:49;25.27;;;9.80;;
50319;SDS011;36226;53.464;9.852;2023-12-04T01:59:14;25.95;;;9.32;;
50319;SDS011;36226;53.464;9.852;2023-12-04T02:01:40;23.73;;;9.20;;
50319;SDS011;36226;53.464;9.852;2023-12-04T02:04:06;24.77;;;9.52;;
50319;SDS011;36226;53.464;9.852;2023-12-04T02:06:31;23.67;;;9.20;;
50319;SDS011;36226;53.464;9.852;2023-12-04T02:08:57;27.33;;;9.88;;
50319;SDS011;36226;53.464;9.852;2023-12-04T02:11:22;23.08;;;9.38;;
50319;SDS011;36226;53.464;9.852;2023-12-04T02:13:48;24.38;;;9.23;;
50319;SDS011;36226;53.464;9.852;2023-12-04T02:16:13;23.75;;;8.98;;
50319;SDS011;36226;53.464;9.852;2023-12-04T02:18:40;22.67;;;9.20;;
50319;SDS011;36226;53.464;9.852;2023-12-04T02:21:05;23.38;;;8.52;;
50319;SDS011;36226;53.464;9.852;2023-12-04T02:23:31;21.05;;;8.88;;
50319;SDS011;36226;53.464;9.852;2023-12-04T02:25:59;20.83;;;8.93;;
50319;SDS011;36226;53.464;9.852;2023-12-04T02:28:31;20.25;;;8.60;;
50319;SDS011;36226;53.464;9.852;2023-12-04T02:30:58;23.83;;;9.27;;
50319;SDS011;36226;53.464;9.852;2023-12-04T02:33:24;21.98;;;8.77;;
50319;SDS011;36226;53.464;9.852;2023-12-04T02:35:50;20.75;;;8.80;;
50319;SDS011;36226;53.464;9.852;2023-12-04T02:38:17;22.17;;;8.80;;
50319;SDS011;36226;53.464;9.852;2023-12-04T02:40:42;26.38;;;9.02;;
50319;SDS011;36226;53.464;9.852;2023-12-04T02:43:08;21.13;;;9.15;;
50319;SDS011;36226;53.464;9.852;2023-12-04T02:45:33;23.67;;;9.30;;
50319;SDS011;36226;53.464;9.852;2023-12-04T02:47:58;21.70;;;9.57;;
50319;SDS011;36226;53.464;9.852;2023-12-04T02:50:24;21.23;;;9.10;;
50319;SDS011;36226;53.464;9.852;2023-12-04T02:52:49;18.55;;;8.18;;
50319;SDS011;36226;53.464;9.852;2023-12-04T02:55:15;19.70;;;8.75;;
50319;SDS011;36226;53.464;9.852;2023-12-04T02:57:40;21.50;;;8.90;;
50319;SDS011;36226;53.464;9.852;2023-12-04T03:00:05;20.23;;;9.30;;
50319;SDS011;36226;53.464;9.852;2023-12-04T03:02:31;24.48;;;9.32;;
50319;SDS011;36226;53.464;9.852;2023-12-04T03:04:57;24.13;;;9.68;;
50319;SDS011;36226;53.464;9.852;2023-12-04T03:07:22;20.30;;;8.02;;
50319;SDS011;36226;53.464;9.852;2023-12-04T03:09:49;21.60;;;9.88;;
50319;SDS011;36226;53.464;9.852;2023-12-04T03:12:14;23.30;;;8.65;;
50319;SDS011;36226;53.464;9.852;2023-12-04T03:14:40;21.50;;;8.02;;
50319;SDS011;36226;53.464;9.852;2023-12-04T03:17:05;20.13;;;8.13;;
50319;SDS011;36226;53.464;9.852;2023-12-04T03:19:31;18.55;;;8.45;;
50319;SDS011;36226;53.464;9.852;2023-12-04T03:21:56;22.85;;;9.40;;
50319;SDS011;36226;53.464;9.852;2023-12-04T03:24:21;24.48;;;8.75;;
50319;SDS011;36226;53.464;9.852;2023-12-04T03:26:47;22.27;;;9.07;;
50319;SDS011;36226;53.464;9.852;2023-12-04T03:29:12;21.20;;;8.73;;
50319;SDS011;36226;53.464;9.852;2023-12-04T03:31:38;23.55;;;9.15;;
50319;SDS011;36226;53.464;9.852;2023-12-04T03:34:03;20.08;;;8.48;;
50319;SDS011;36226;53.464;9.852;2023-12-04T03:36:29;21.15;;;8.43;;
50319;SDS011;36226;53.464;9.852;2023-12-04T03:38:54;23.77;;;9.23;;
50319;SDS011;36226;53.464;9.852;2023-12-04T03:41:19;20.35;;;8.55;;
50319;SDS011;36226;53.464;9.852;2023-12-04T03:43:47;17.50;;;7.85;;
50319;SDS011;36226;53.464;9.852;2023-12-04T03:46:12;18.17;;;8.05;;
50319;SDS011;36226;53.464;9.852;2023-12-04T03:48:37;18.20;;;8.00;;
50319;SDS011;36226;53.464;9.852;2023-12-04T03:51:04;19.23;;;8.32;;
50319;SDS011;36226;53.464;9.852;2023-12-04T03:53:29;22.13;;;9.02;;
50319;SDS011;36226;53.464;9.852;2023-12-04T03:55:57;20.25;;;8.38;;
50319;SDS011;36226;53.464;9.852;2023-12-04T03:58:23;21.45;;;7.97;;
50319;SDS011;36226;53.464;9.852;2023-12-04T04:00:48;21.83;;;8.50;;
50319;SDS011;36226;53.464;9.852;2023-12-04T04:03:14;19.67;;;8.25;;
50319;SDS011;36226;53.464;9.852;2023-12-04T04:05:40;19.52;;;8.27;;
50319;SDS011;36226;53.464;9.852;2023-12-04T04:08:05;18.58;;;7.93;;
50319;SDS011;36226;53.464;9.852;2023-12-04T04:10:32;20.65;;;8.57;;
50319;SDS011;36226;53.464;9.852;2023-12-04T04:12:58;18.48;;;8.23;;
50319;SDS011;36226;53.464;9.852;2023-12-04T04:15:23;22.38;;;7.70;;
50319;SDS011;36226;53.464;9.852;2023-12-04T04:17:48;16.55;;;7.50;;
50319;SDS011;36226;53.464;9.852;2023-12-04T04:20:14;21.15;;;8.27;;
50319;SDS011;36226;53.464;9.852;2023-12-04T04:22:39;22.23;;;8.82;;
50319;SDS011;36226;53.464;9.852;2023-12-04T04:25:09;17.25;;;7.65;;
50319;SDS011;36226;53.464;9.852;2023-12-04T04:27:34;19.85;;;7.70;;
50319;SDS011;36226;53.464;9.852;2023-12-04T04:30:00;20.33;;;8.43;;
50319;SDS011;36226;53.464;9.852;2023-12-04T04:32:26;18.52;;;8.05;;
50319;SDS011;36226;53.464;9.852;2023-12-04T04:34:51;18.50;;;7.32;;
50319;SDS011;36226;53.464;9.852;2023-12-04T04:37:17;16.98;;;7.20;;
50319;SDS011;36226;53.464;9.852;2023-12-04T04:39:42;18.27;;;7.78;;
50319;SDS011;36226;53.464;9.852;2023-12-04T04:42:08;19.25;;;7.68;;
50319;SDS011;36226;53.464;9.852;2023-12-04T04:44:33;19.50;;;7.85;;
50319;SDS011;36226;53.464;9.852;2023-12-04T04:46:59;18.42;;;7.07;;
50319;SDS011;36226;53.464;9.852;2023-12-04T04:49:24;18.83;;;8.25;;
50319;SDS011;36226;53.464;9.852;2023-12-04T04:51:49;18.83;;;7.75;;
50319;SDS011;36226;53.464;9.852;2023-12-04T04:54:14;17.30;;;8.07;;
50319;SDS011;36226;53.464;9.852;2023-12-04T04:56:40;20.08;;;8.15;;
50319;SDS011;36226;53.464;9.852;2023-12-04T04:59:05;17.80;;;7.43;;
50319;SDS011;36226;53.464;9.852;2023-12-04T05:01:31;22.52;;;8.07;;
50319;SDS011;36226;53.464;9.852;2023-12-04T05:03:56;21.65;;;8.45;;
50319;SDS011;36226;53.464;9.852;2023-12-04T05:06:21;17.52;;;7.13;;
50319;SDS011;36226;53.464;9.852;2023-12-04T05:08:47;21.83;;;8.32;;
50319;SDS011;36226;53.464;9.852;2023-12-04T05:11:16;18.05;;;7.53;;
50319;SDS011;36226;53.464;9.852;2023-12-04T05:13:41;21.33;;;8.00;;
50319;SDS011;36226;53.464;9.852;2023-12-04T05:16:07;19.67;;;8.38;;
50319;SDS011;36226;53.464;9.852;2023-12-04T05:18:33;20.50;;;8.27;;
50319;SDS011;36226;53.464;9.852;2023-12-04T05:20:58;18.48;;;7.70;;
50319;SDS011;36226;53.464;9.852;2023-12-04T05:23:23;24.48;;;9.38;;
50319;SDS011;36226;53.464;9.852;2023-12-04T05:25:49;18.60;;;8.50;;
50319;SDS011;36226;53.464;9.852;2023-12-04T05:28:14;18.67;;;8.25;;
50319;SDS011;36226;53.464;9.852;2023-12-04T05:30:39;20.58;;;8.70;;
50319;SDS011;36226;53.464;9.852;2023-12-04T05:33:05;16.30;;;7.53;;
50319;SDS011;36226;53.464;9.852;2023-12-04T05:35:30;21.58;;;7.95;;
50319;SDS011;36226;53.464;9.852;2023-12-04T05:37:59;20.38;;;8.57;;
50319;SDS011;36226;53.464;9.852;2023-12-04T05:40:24;21.60;;;7.93;;
50319;SDS011;36226;53.464;9.852;2023-12-04T05:42:49;20.95;;;7.97;;
50319;SDS011;36226;53.464;9.852;2023-12-04T05:45:15;20.02;;;8.02;;
50319;SDS011;36226;53.464;9.852;2023-12-04T05:47:40;20.63;;;8.00;;
50319;SDS011;36226;53.464;9.852;2023-12-04T05:50:06;20.55;;;8.02;;
50319;SDS011;36226;53.464;9.852;2023-12-04T05:52:32;18.58;;;7.97;;
50319;SDS011;36226;53.464;9.852;2023-12-04T05:54:57;22.67;;;7.95;;
50319;SDS011;36226;53.464;9.852;2023-12-04T05:57:22;16.45;;;7.47;;
50319;SDS011;36226;53.464;9.852;2023-12-04T05:59:48;21.73;;;9.15;;
50319;SDS011;36226;53.464;9.852;2023-12-04T06:02:13;19.65;;;8.57;;
50319;SDS011;36226;53.464;9.852;2023-12-04T06:04:40;20.33;;;7.93;;
50319;SDS011;36226;53.464;9.852;2023-12-04T06:07:05;21.05;;;8.43;;
50319;SDS011;36226;53.464;9.852;2023-12-04T06:09:31;19.25;;;8.10;;
50319;SDS011;36226;53.464;9.852;2023-12-04T06:11:57;19.27;;;7.53;;
50319;SDS011;36226;53.464;9.852;2023-12-04T06:14:22;18.27;;;7.35;;
50319;SDS011;36226;53.464;9.852;2023-12-04T06:16:48;19.73;;;8.13;;
50319;SDS011;36226;53.464;9.852;2023-12-04T06:19:13;19.95;;;7.63;;
50319;SDS011;36226;53.464;9.852;2023-12-04T06:21:39;21.00;;;7.60;;
50319;SDS011;36226;53.464;9.852;2023-12-04T06:24:04;16.15;;;7.13;;
50319;SDS011;36226;53.464;9.852;2023-12-04T06:26:31;22.27;;;8.10;;
50319;SDS011;36226;53.464;9.852;2023-12-04T06:28:57;19.52;;;8.25;;
50319;SDS011;36226;53.464;9.852;2023-12-04T06:31:22;20.55;;;8.23;;
50319;SDS011;36226;53.464;9.852;2023-12-04T06:33:48;18.98;;;7.15;;
50319;SDS011;36226;53.464;9.852;2023-12-04T06:36:14;17.58;;;7.93;;
50319;SDS011;36226;53.464;9.852;2023-12-04T06:38:40;18.25;;;8.95;;
50319;SDS011;36226;53.464;9.852;2023-12-04T06:41:06;19.33;;;7.85;;
50319;SDS011;36226;53.464;9.852;2023-12-04T06:43:32;19.23;;;7.70;;
50319;SDS011;36226;53.464;9.852;2023-12-04T06:45:58;21.35;;;8.35;;
50319;SDS011;36226;53.464;9.852;2023-12-04T06:48:24;19.55;;;8.13;;
50319;SDS011;36226;53.464;9.852;2023-12-04T06:50:50;18.27;;;7.72;;
50319;SDS011;36226;53.464;9.852;2023-12-04T06:53:15;21.83;;;8.82;;
50319;SDS011;36226;53.464;9.852;2023-12-04T06:55:40;19.23;;;8.20;;
50319;SDS011;36226;53.464;9.852;2023-12-04T06:58:06;20.20;;;8.02;;
50319;SDS011;36226;53.464;9.852;2023-12-04T07:00:31;19.92;;;8.70;;
50319;SDS011;36226;53.464;9.852;2023-12-04T07:02:56;19.25;;;7.95;;
50319;SDS011;36226;53.464;9.852;2023-12-04T07:05:22;20.33;;;7.78;;
50319;SDS011;36226;53.464;9.852;2023-12-04T07:07:47;21.92;;;8.35;;
50319;SDS011;36226;53.464;9.852;2023-12-04T07:10:13;18.45;;;7.63;;
50319;SDS011;36226;53.464;9.852;2023-12-04T07:12:40;19.15;;;7.78;;
50319;SDS011;36226;53.464;9.852;2023-12-04T07:15:06;24.17;;;8.75;;
50319;SDS011;36226;53.464;9.852;2023-12-04T07:17:32;22.00;;;9.32;;
50319;SDS011;36226;53.464;9.852;2023-12-04T07:19:58;19.20;;;8.70;;
50319;SDS011;36226;53.464;9.852;2023-12-04T07:22:23;25.48;;;8.70;;
50319;SDS011;36226;53.464;9.852;2023-12-04T07:24:48;22.05;;;8.65;;
50319;SDS011;36226;53.464;9.852;2023-12-04T07:27:14;21.90;;;8.88;;
50319;SDS011;36226;53.464;9.852;2023-12-04T07:29:39;23.33;;;8.80;;
50319;SDS011;36226;53.464;9.852;2023-12-04T07:32:04;23.02;;;8.82;;
50319;SDS011;36226;53.464;9.852;2023-12-04T07:34:30;21.20;;;9.02;;
50319;SDS011;36226;53.464;9.852;2023-12-04T07:36:56;22.70;;;8.73;;
50319;SDS011;36226;53.464;9.852;2023-12-04T07:39:21;25.88;;;9.80;;
50319;SDS011;36226;53.464;9.852;2023-12-04T07:41:46;20.17;;;8.25;;
50319;SDS011;36226;53.464;9.852;2023-12-04T07:44:12;26.48;;;9.70;;
50319;SDS011;36226;53.464;9.852;2023-12-04T07:46:37;26.13;;;9.38;;
50319;SDS011;36226;53.464;9.852;2023-12-04T07:49:02;27.63;;;9.63;;
50319;SDS011;36226;53.464;9.852;2023-12-04T07:51:28;22.30;;;9.48;;
50319;SDS011;36226;53.464;9.852;2023-12-04T07:53:54;25.88;;;9.98;;
50319;SDS011;36226;53.464;9.852;2023-12-04T07:56:19;22.50;;;9.35;;
50319;SDS011;36226;53.464;9.852;2023-12-04T07:58:45;23.45;;;9.25;;
50319;SDS011;36226;53.464;9.852;2023-12-04T08:01:10;22.08;;;9.50;;
50319;SDS011;36226;53.464;9.852;2023-12-04T08:03:35;25.38;;;9.75;;
50319;SDS011;36226;53.464;9.852;2023-12-04T08:06:01;20.95;;;9.68;;
50319;SDS011;36226;53.464;9.852;2023-12-04T08:08:26;24.77;;;10.25;;
50319;SDS011;36226;53.464;9.852;2023-12-04T08:10:51;26.20;;;9.98;;
50319;SDS011;36226;53.464;9.852;2023-12-04T08:13:17;25.48;;;9.25;;
50319;SDS011;36226;53.464;9.852;2023-12-04T08:15:43;25.30;;;9.48;;
50319;SDS011;36226;53.464;9.852;2023-12-04T08:18:09;25.77;;;9.77;;
50319;SDS011;36226;53.464;9.852;2023-12-04T08:20:34;25.52;;;9.23;;
50319;SDS011;36226;53.464;9.852;2023-12-04T08:23:00;28.50;;;10.25;;
50319;SDS011;36226;53.464;9.852;2023-12-04T08:25:25;23.83;;;10.18;;
50319;SDS011;36226;53.464;9.852;2023-12-04T08:27:51;25.77;;;10.10;;
50319;SDS011;36226;53.464;9.852;2023-12-04T08:30:17;26.63;;;10.77;;
50319;SDS011;36226;53.464;9.852;2023-12-04T08:32:43;26.10;;;11.00;;
50319;SDS011;36226;53.464;9.852;2023-12-04T08:35:08;23.92;;;10.20;;
50319;SDS011;36226;53.464;9.852;2023-12-04T08:37:33;26.27;;;9.80;;
50319;SDS011;36226;53.464;9.852;2023-12-04T08:39:59;23.30;;;9.82;;
50319;SDS011;36226;53.464;9.852;2023-12-04T08:42:24;22.90;;;9.75;;
50319;SDS011;36226;53.464;9.852;2023-12-04T08:44:51;26.33;;;10.27;;
50319;SDS011;36226;53.464;9.852;2023-12-04T08:47:16;27.00;;;10.25;;
50319;SDS011;36226;53.464;9.852;2023-12-04T08:49:42;27.70;;;10.45;;
50319;SDS011;36226;53.464;9.852;2023-12-04T08:52:08;28.27;;;11.38;;
50319;SDS011;36226;53.464;9.852;2023-12-04T08:54:34;27.83;;;10.10;;
50319;SDS011;36226;53.464;9.852;2023-12-04T08:56:59;25.73;;;10.85;;
50319;SDS011;36226;53.464;9.852;2023-12-04T08:59:24;25.85;;;10.93;;
50319;SDS011;36226;53.464;9.852;2023-12-04T09:01:50;28.45;;;9.82;;
50319;SDS011;36226;53.464;9.852;2023-12-04T09:04:16;28.27;;;10.75;;
50319;SDS011;36226;53.464;9.852;2023-12-04T09:06:41;24.05;;;10.70;;
50319;SDS011;36226;53.464;9.852;2023-12-04T09:09:07;24.95;;;10.43;;
50319;SDS011;36226;53.464;9.852;2023-12-04T09:11:32;24.45;;;9.75;;
50319;SDS011;36226;53.464;9.852;2023-12-04T09:13:58;22.90;;;9.80;;
50319;SDS011;36226;53.464;9.852;2023-12-04T09:16:23;25.42;;;9.73;;
50319;SDS011;36226;53.464;9.852;2023-12-04T09:18:49;24.65;;;9.80;;
50319;SDS011;36226;53.464;9.852;2023-12-04T09:21:14;26.98;;;10.18;;
50319;SDS011;36226;53.464;9.852;2023-12-04T09:23:39;23.35;;;9.90;;
50319;SDS011;36226;53.464;9.852;2023-12-04T09:26:05;23.83;;;9.93;;
50319;SDS011;36226;53.464;9.852;2023-12-04T09:28:30;23.98;;;10.73;;
50319;SDS011;36226;53.464;9.852;2023-12-04T09:30:56;29.10;;;10.88;;
50319;SDS011;36226;53.464;9.852;2023-12-04T09:33:21;25.27;;;9.95;;
50319;SDS011;36226;53.464;9.852;2023-12-04T09:35:46;27.60;;;11.10;;
50319;SDS011;36226;53.464;9.852;2023-12-04T09:38:12;23.85;;;10.80;;
50319;SDS011;36226;53.464;9.852;2023-12-04T09:40:37;28.88;;;11.45;;
50319;SDS011;36226;53.464;9.852;2023-12-04T09:43:02;25.52;;;10.90;;
50319;SDS011;36226;53.464;9.852;2023-12-04T09:45:28;23.65;;;10.07;;
50319;SDS011;36226;53.464;9.852;2023-12-04T09:47:54;31.08;;;11.25;;
50319;SDS011;36226;53.464;9.852;2023-12-04T09:50:20;24.95;;;10.52;;
50319;SDS011;36226;53.464;9.852;2023-12-04T09:52:50;25.13;;;9.75;;
50319;SDS011;36226;53.464;9.852;2023-12-04T09:55:17;29.50;;;10.95;;
50319;SDS011;36226;53.464;9.852;2023-12-04T09:57:45;23.17;;;9.77;;
50319;SDS011;36226;53.464;9.852;2023-12-04T10:00:14;23.90;;;9.85;;
50319;SDS011;36226;53.464;9.852;2023-12-04T10:02:40;24.17;;;9.43;;
50319;SDS011;36226;53.464;9.852;2023-12-04T10:05:06;23.65;;;10.48;;
50319;SDS011;36226;53.464;9.852;2023-12-04T10:07:35;24.15;;;10.43;;
50319;SDS011;36226;53.464;9.852;2023-12-04T10:10:04;24.98;;;9.50;;
50319;SDS011;36226;53.464;9.852;2023-12-04T10:12:30;22.85;;;9.55;;
50319;SDS011;36226;53.464;9.852;2023-12-04T10:15:03;26.42;;;10.25;;
50319;SDS011;36226;53.464;9.852;2023-12-04T10:17:33;27.70;;;10.63;;
50319;SDS011;36226;53.464;9.852;2023-12-04T10:20:10;22.63;;;9.73;;
50319;SDS011;36226;53.464;9.852;2023-12-04T10:22:51;22.48;;;9.98;;
50319;SDS011;36226;53.464;9.852;2023-12-04T10:25:18;23.95;;;10.32;;
50319;SDS011;36226;53.464;9.852;2023-12-04T10:27:44;24.10;;;9.57;;
50319;SDS011;36226;53.464;9.852;2023-12-04T10:30:21;18.98;;;8.63;;
50319;SDS011;36226;53.464;9.852;2023-12-04T10:32:48;19.92;;;8.98;;
50319;SDS011;36226;53.464;9.852;2023-12-04T10:35:13;19.48;;;9.00;;
50319;SDS011;36226;53.464;9.852;2023-12-04T10:37:39;22.27;;;10.07;;
50319;SDS011;36226;53.464;9.852;2023-12-04T10:40:04;22.20;;;9.40;;
50319;SDS011;36226;53.464;9.852;2023-12-04T10:42:33;25.92;;;11.73;;
50319;SDS011;36226;53.464;9.852;2023-12-04T10:44:59;22.38;;;9.85;;
50319;SDS011;36226;53.464;9.852;2023-12-04T10:47:26;23.98;;;9.27;;
50319;SDS011;36226;53.464;9.852;2023-12-04T10:49:53;20.88;;;8.82;;
50319;SDS011;36226;53.464;9.852;2023-12-04T10:52:19;22.95;;;9.32;;
50319;SDS011;36226;53.464;9.852;2023-12-04T10:54:46;21.70;;;9.38;;
50319;SDS011;36226;53.464;9.852;2023-12-04T10:57:26;23.55;;;9.85;;
50319;SDS011;36226;53.464;9.852;2023-12-04T10:59:57;18.55;;;8.57;;
50319;SDS011;36226;53.464;9.852;2023-12-04T11:02:25;20.60;;;8.90;;
50319;SDS011;36226;53.464;9.852;2023-12-04T11:04:52;22.90;;;9.30;;
50319;SDS011;36226;53.464;9.852;2023-12-04T11:07:22;19.05;;;9.52;;
50319;SDS011;36226;53.464;9.852;2023-12-04T11:09:48;18.25;;;9.05;;
50319;SDS011;36226;53.464;9.852;2023-12-04T11:12:14;20.48;;;9.23;;
50319;SDS011;36226;53.464;9.852;2023-12-04T11:14:44;24.25;;;9.68;;
50319;SDS011;36226;53.464;9.852;2023-12-04T11:17:12;21.65;;;8.13;;
50319;SDS011;36226;53.464;9.852;2023-12-04T11:19:43;22.83;;;8.73;;
50319;SDS011;36226;53.464;9.852;2023-12-04T11:22:11;18.17;;;8.10;;
50319;SDS011;36226;53.464;9.852;2023-12-04T11:24:37;20.33;;;8.32;;
50319;SDS011;36226;53.464;9.852;2023-12-04T11:27:02;20.80;;;8.43;;
50319;SDS011;36226;53.464;9.852;2023-12-04T11:29:29;19.17;;;9.00;;
50319;SDS011;36226;53.464;9.852;2023-12-04T11:31:55;18.58;;;8.48;;
50319;SDS011;36226;53.464;9.852;2023-12-04T11:34:20;21.20;;;9.02;;
50319;SDS011;36226;53.464;9.852;2023-12-04T11:36:46;19.75;;;9.15;;
50319;SDS011;36226;53.464;9.852;2023-12-04T11:39:12;22.17;;;9.65;;
50319;SDS011;36226;53.464;9.852;2023-12-04T11:41:37;19.45;;;8.90;;
50319;SDS011;36226;53.464;9.852;2023-12-04T11:44:03;18.23;;;8.88;;
50319;SDS011;36226;53.464;9.852;2023-12-04T11:46:29;21.75;;;9.65;;
50319;SDS011;36226;53.464;9.852;2023-12-04T11:51:55;26.65;;;10.63;;
50319;SDS011;36226;53.464;9.852;2023-12-04T11:54:23;21.75;;;9.43;;
50319;SDS011;36226;53.464;9.852;2023-12-04T11:59:26;20.73;;;10.50;;
50319;SDS011;36226;53.464;9.852;2023-12-04T12:01:55;21.27;;;10.88;;
50319;SDS011;36226;53.464;9.852;2023-12-04T12:04:22;19.67;;;10.75;;
50319;SDS011;36226;53.464;9.852;2023-12-04T12:06:48;20.42;;;9.25;;
50319;SDS011;36226;53.464;9.852;2023-12-04T12:09:13;23.35;;;11.30;;
50319;SDS011;36226;53.464;9.852;2023-12-04T12:11:39;21.65;;;10.77;;
50319;SDS011;36226;53.464;9.852;2023-12-04T12:14:04;18.38;;;8.20;;
50319;SDS011;36226;53.464;9.852;2023-12-04T12:16:31;17.45;;;9.27;;
50319;SDS011;36226;53.464;9.852;2023-12-04T12:18:57;18.33;;;8.75;;
50319;SDS011;36226;53.464;9.852;2023-12-04T12:21:22;20.10;;;8.85;;
50319;SDS011;36226;53.464;9.852;2023-12-04T12:23:47;16.58;;;7.78;;
50319;SDS011;36226;53.464;9.852;2023-12-04T12:26:13;20.13;;;8.52;;
50319;SDS011;36226;53.464;9.852;2023-12-04T12:28:38;20.48;;;9.15;;
50319;SDS011;36226;53.464;9.852;2023-12-04T12:31:04;19.25;;;8.32;;
50319;SDS011;36226;53.464;9.852;2023-12-04T12:33:29;15.05;;;7.55;;
50319;SDS011;36226;53.464;9.852;2023-12-04T12:35:55;15.52;;;7.18;;
50319;SDS011;36226;53.464;9.852;2023-12-04T12:38:21;17.70;;;7.35;;
50319;SDS011;36226;53.464;9.852;2023-12-04T12:40:46;17.92;;;7.90;;
50319;SDS011;36226;53.464;9.852;2023-12-04T12:43:12;17.77;;;7.28;;
50319;SDS011;36226;53.464;9.852;2023-12-04T12:45:41;19.00;;;8.15;;
50319;SDS011;36226;53.464;9.852;2023-12-04T12:48:12;17.02;;;7.95;;
50319;SDS011;36226;53.464;9.852;2023-12-04T12:50:41;19.63;;;8.25;;
50319;SDS011;36226;53.464;9.852;2023-12-04T12:53:08;16.00;;;7.50;;
50319;SDS011;36226;53.464;9.852;2023-12-04T12:55:33;16.08;;;7.38;;
50319;SDS011;36226;53.464;9.852;2023-12-04T12:57:59;17.33;;;7.68;;
50319;SDS011;36226;53.464;9.852;2023-12-04T13:00:24;16.48;;;7.50;;
50319;SDS011;36226;53.464;9.852;2023-12-04T13:02:52;17.15;;;7.68;;
50319;SDS011;36226;53.464;9.852;2023-12-04T13:05:18;19.95;;;8.10;;
50319;SDS011;36226;53.464;9.852;2023-12-04T13:07:44;16.40;;;8.15;;
50319;SDS011;36226;53.464;9.852;2023-12-04T13:10:10;17.90;;;7.80;;
50319;SDS011;36226;53.464;9.852;2023-12-04T13:12:36;19.48;;;7.90;;
50319;SDS011;36226;53.464;9.852;2023-12-04T13:15:01;18.45;;;8.63;;
50319;SDS011;36226;53.464;9.852;2023-12-04T13:17:28;19.65;;;8.52;;
50319;SDS011;36226;53.464;9.852;2023-12-04T13:19:53;19.63;;;8.15;;
50319;SDS011;36226;53.464;9.852;2023-12-04T13:22:19;17.67;;;8.20;;
50319;SDS011;36226;53.464;9.852;2023-12-04T13:24:44;18.52;;;8.00;;
50319;SDS011;36226;53.464;9.852;2023-12-04T13:27:10;21.73;;;8.90;;
50319;SDS011;36226;53.464;9.852;2023-12-04T13:29:36;19.55;;;8.55;;
50319;SDS011;36226;53.464;9.852;2023-12-04T13:32:01;20.73;;;8.50;;
50319;SDS011;36226;53.464;9.852;2023-12-04T13:34:27;19.35;;;8.15;;
50319;SDS011;36226;53.464;9.852;2023-12-04T13:36:53;18.58;;;8.77;;
50319;SDS011;36226;53.464;9.852;2023-12-04T13:39:18;20.80;;;8.07;;
50319;SDS011;36226;53.464;9.852;2023-12-04T13:41:51;19.40;;;8.35;;
50319;SDS011;36226;53.464;9.852;2023-12-04T13:44:35;19.30;;;8.57;;
50319;SDS011;36226;53.464;9.852;2023-12-04T13:47:01;18.02;;;7.68;;
50319;SDS011;36226;53.464;9.852;2023-12-04T13:49:26;19.67;;;8.80;;
50319;SDS011;36226;53.464;9.852;2023-12-04T13:51:51;18.63;;;8.50;;
50319;SDS011;36226;53.464;9.852;2023-12-04T13:54:18;23.00;;;8.52;;
50319;SDS011;36226;53.464;9.852;2023-12-04T13:56:52;18.63;;;9.27;;
50319;SDS011;36226;53.464;9.852;2023-12-04T13:59:21;16.30;;;8.02;;
50319;SDS011;36226;53.464;9.852;2023-12-04T14:01:47;20.90;;;9.57;;
50319;SDS011;36226;53.464;9.852;2023-12-04T14:04:15;21.73;;;8.98;;
50319;SDS011;36226;53.464;9.852;2023-12-04T14:06:41;21.58;;;9.55;;
50319;SDS011;36226;53.464;9.852;2023-12-04T14:09:06;21.88;;;9.02;;
50319;SDS011;36226;53.464;9.852;2023-12-04T14:11:36;20.38;;;9.68;;
50319;SDS011;36226;53.464;9.852;2023-12-04T14:14:01;23.65;;;10.25;;
50319;SDS011;36226;53.464;9.852;2023-12-04T14:16:27;21.73;;;9.95;;
50319;SDS011;36226;53.464;9.852;2023-12-04T14:18:53;23.45;;;9.80;;
50319;SDS011;36226;53.464;9.852;2023-12-04T14:21:19;24.25;;;9.52;;
50319;SDS011;36226;53.464;9.852;2023-12-04T14:23:44;25.35;;;9.85;;
50319;SDS011;36226;53.464;9.852;2023-12-04T14:26:09;20.60;;;8.65;;
50319;SDS011;36226;53.464;9.852;2023-12-04T14:28:35;21.77;;;8.68;;
50319;SDS011;36226;53.464;9.852;2023-12-04T14:31:01;19.08;;;8.77;;